sensor_id;sensor_type;location;lat;lon;timestamp;temperature;humidity
5792;DHT22;2922;53.482;10.006;2023-08-24T09:11:53;25.30;99.90
5792;DHT22;2922;53.482;10.006;2023-08-24T09:14:19;25.40;99.90
5792;DHT22;2922;53.482;10.006;2023-08-24T09:16:44;25.60;99.90
5792;DHT22;2922;53.482;10.006;2023-08-24T09:19:13;25.70;99.90
5792;DHT22;2922;53.482;10.006;2023-08-24T09:21:39;25.80;99.90
5792;DHT22;2922;53.482;10.006;2023-08-24T09:24:07;25.80;99.90
5792;DHT22;2922;53.482;10.006;2023-08-24T09:26:35;26.00;99.90
5792;DHT22;2922;53.482;10.006;2023-08-24T09:29:05;26.10;99.90
5792;DHT22;2922;53.482;10.006;2023-08-24T09:31:36;26.20;99.90
5792;DHT22;2922;53.482;10.006;2023-08-24T09:34:05;26.40;99.90
5792;DHT22;2922;53.482;10.006;2023-08-24T09:36:32;26.40;99.90
5792;DHT22;2922;53.482;10.006;2023-08-24T09:38:59;26.50;99.90
5792;DHT22;2922;53.482;10.006;2023-08-24T09:41:37;26.70;99.90
5792;DHT22;2922;53.482;10.006;2023-08-24T09:44:04;26.80;99.90
5792;DHT22;2922;53.482;10.006;2023-08-24T09:46:30;26.90;99.90
5792;DHT22;2922;53.482;10.006;2023-08-24T09:48:55;26.80;99.90
5792;DHT22;2922;53.482;10.006;2023-08-24T09:51:25;27.10;99.90
5792;DHT22;2922;53.482;10.006;2023-08-24T09:53:51;27.30;99.90
5792;DHT22;2922;53.482;10.006;2023-08-24T09:56:18;27.30;99.90
5792;DHT22;2922;53.482;10.006;2023-08-24T09:58:46;27.00;99.90
5792;DHT22;2922;53.482;10.006;2023-08-24T10:01:13;26.90;99.90
5792;DHT22;2922;53.482;10.006;2023-08-24T10:03:40;27.10;99.90
5792;DHT22;2922;53.482;10.006;2023-08-24T10:06:09;27.20;99.90
5792;DHT22;2922;53.482;10.006;2023-08-24T10:08:37;27.20;99.90
5792;DHT22;2922;53.482;10.006;2023-08-24T10:11:03;27.50;99.90
5792;DHT22;2922;53.482;10.006;2023-08-24T10:15:59;28.10;99.90
5792;DHT22;2922;53.482;10.006;2023-08-24T10:18:26;28.30;99.90
5792;DHT22;2922;53.482;10.006;2023-08-24T10:20:52;28.20;99.90
5792;DHT22;2922;53.482;10.006;2023-08-24T10:23:19;28.40;99.90
5792;DHT22;2922;53.482;10.006;2023-08-24T10:25:46;28.70;99.90
5792;DHT22;2922;53.482;10.006;2023-08-24T10:28:12;28.90;99.90
5792;DHT22;2922;53.482;10.006;2023-08-24T10:30:38;28.70;99.90
5792;DHT22;2922;53.482;10.006;2023-08-24T10:33:06;28.70;99.90
5792;DHT22;2922;53.482;10.006;2023-08-24T10:35:32;28.60;99.90
5792;DHT22;2922;53.482;10.006;2023-08-24T10:37:59;28.20;99.90
5792;DHT22;2922;53.482;10.006;2023-08-24T10:40:36;28.40;99.90
5792;DHT22;2922;53.482;10.006;2023-08-24T10:43:05;28.40;99.90
5792;DHT22;2922;53.482;10.006;2023-08-24T10:46:03;28.00;99.90
5792;DHT22;2922;53.482;10.006;2023-08-24T10:48:30;27.90;99.90
5792;DHT22;2922;53.482;10.006;2023-08-24T10:51:22;27.80;99.90
5792;DHT22;2922;53.482;10.006;2023-08-24T10:53:52;28.20;99.90
5792;DHT22;2922;53.482;10.006;2023-08-24T10:56:18;28.40;99.90
5792;DHT22;2922;53.482;10.006;2023-08-24T10:58:45;28.80;99.90
5792;DHT22;2922;53.482;10.006;2023-08-24T11:01:15;28.90;99.90
5792;DHT22;2922;53.482;10.006;2023-08-24T11:03:42;29.00;99.90
5792;DHT22;2922;53.482;10.006;2023-08-24T11:06:22;29.00;99.20
5792;DHT22;2922;53.482;10.006;2023-08-24T11:08:49;29.00;99.90
5792;DHT22;2922;53.482;10.006;2023-08-24T11:11:21;29.00;99.90
5792;DHT22;2922;53.482;10.006;2023-08-24T11:14:21;28.90;99.90
5792;DHT22;2922;53.482;10.006;2023-08-24T11:17:00;28.80;99.90
5792;DHT22;2922;53.482;10.006;2023-08-24T11:19:26;29.10;99.90
5792;DHT22;2922;53.482;10.006;2023-08-24T11:21:51;29.30;99.90
5792;DHT22;2922;53.482;10.006;2023-08-24T11:24:17;29.50;99.90
5792;DHT22;2922;53.482;10.006;2023-08-24T11:26:47;29.50;99.90
5792;DHT22;2922;53.482;10.006;2023-08-24T11:29:14;29.50;98.70
5792;DHT22;2922;53.482;10.006;2023-08-24T11:31:41;29.30;88.50
5792;DHT22;2922;53.482;10.006;2023-08-24T11:34:07;29.20;99.90
5792;DHT22;2922;53.482;10.006;2023-08-24T11:39:17;29.40;99.90
5792;DHT22;2922;53.482;10.006;2023-08-24T11:41:57;29.50;93.10
5792;DHT22;2922;53.482;10.006;2023-08-24T11:44:23;29.30;99.90
5792;DHT22;2922;53.482;10.006;2023-08-24T11:46:49;29.20;92.20
5792;DHT22;2922;53.482;10.006;2023-08-24T11:49:15;29.30;99.90
5792;DHT22;2922;53.482;10.006;2023-08-24T11:51:40;29.30;89.40
5792;DHT22;2922;53.482;10.006;2023-08-24T11:54:06;29.40;99.90
5792;DHT22;2922;53.482;10.006;2023-08-24T11:56:32;29.60;99.20
5792;DHT22;2922;53.482;10.006;2023-08-24T11:58:57;29.70;93.60
5792;DHT22;2922;53.482;10.006;2023-08-24T12:01:23;29.70;91.90
5792;DHT22;2922;53.482;10.006;2023-08-24T12:03:50;29.70;93.90
5792;DHT22;2922;53.482;10.006;2023-08-24T12:06:16;29.90;97.70
5792;DHT22;2922;53.482;10.006;2023-08-24T12:08:47;29.80;86.00
5792;DHT22;2922;53.482;10.006;2023-08-24T12:11:17;29.70;95.60
5792;DHT22;2922;53.482;10.006;2023-08-24T12:13:45;29.70;93.50
5792;DHT22;2922;53.482;10.006;2023-08-24T12:16:11;29.70;95.60
5792;DHT22;2922;53.482;10.006;2023-08-24T12:18:51;29.90;95.20
5792;DHT22;2922;53.482;10.006;2023-08-24T12:21:16;29.80;82.20
5792;DHT22;2922;53.482;10.006;2023-08-24T12:23:42;30.00;92.80
5792;DHT22;2922;53.482;10.006;2023-08-24T12:26:08;30.00;86.10
5792;DHT22;2922;53.482;10.006;2023-08-24T12:28:34;30.00;74.70
5792;DHT22;2922;53.482;10.006;2023-08-24T12:31:00;30.10;85.90
5792;DHT22;2922;53.482;10.006;2023-08-24T12:33:33;30.20;82.10
5792;DHT22;2922;53.482;10.006;2023-08-24T12:35:58;30.10;81.90
5792;DHT22;2922;53.482;10.006;2023-08-24T12:38:25;30.20;88.20
5792;DHT22;2922;53.482;10.006;2023-08-24T12:40:52;30.10;77.20
5792;DHT22;2922;53.482;10.006;2023-08-24T12:43:17;30.20;85.60
5792;DHT22;2922;53.482;10.006;2023-08-24T12:45:43;30.30;83.00
5792;DHT22;2922;53.482;10.006;2023-08-24T12:48:09;30.30;80.00
5792;DHT22;2922;53.482;10.006;2023-08-24T12:50:36;30.30;74.10
5792;DHT22;2922;53.482;10.006;2023-08-24T12:53:02;30.50;81.50
5792;DHT22;2922;53.482;10.006;2023-08-24T12:55:32;30.60;81.20
5792;DHT22;2922;53.482;10.006;2023-08-24T12:57:57;30.80;75.30
5792;DHT22;2922;53.482;10.006;2023-08-24T13:00:23;30.80;73.70
5792;DHT22;2922;53.482;10.006;2023-08-24T13:02:50;30.90;74.70
5792;DHT22;2922;53.482;10.006;2023-08-24T13:05:16;30.90;73.90
5792;DHT22;2922;53.482;10.006;2023-08-24T13:07:42;31.00;76.00
5792;DHT22;2922;53.482;10.006;2023-08-24T13:10:08;30.90;76.60
5792;DHT22;2922;53.482;10.006;2023-08-24T13:12:34;30.70;76.10
5792;DHT22;2922;53.482;10.006;2023-08-24T13:15:00;30.60;70.50
5792;DHT22;2922;53.482;10.006;2023-08-24T13:17:27;30.70;73.80
5792;DHT22;2922;53.482;10.006;2023-08-24T13:19:53;30.60;71.80
5792;DHT22;2922;53.482;10.006;2023-08-24T13:22:18;30.50;72.80
5792;DHT22;2922;53.482;10.006;2023-08-24T13:24:44;30.40;67.70
5792;DHT22;2922;53.482;10.006;2023-08-24T13:27:10;30.40;73.70
5792;DHT22;2922;53.482;10.006;2023-08-24T13:29:40;30.40;75.30
5792;DHT22;2922;53.482;10.006;2023-08-24T13:32:05;30.50;75.00
5792;DHT22;2922;53.482;10.006;2023-08-24T13:34:31;30.30;73.80
5792;DHT22;2922;53.482;10.006;2023-08-24T13:36:57;30.20;78.60
5792;DHT22;2922;53.482;10.006;2023-08-24T13:39:26;30.00;81.00
5792;DHT22;2922;53.482;10.006;2023-08-24T13:41:54;29.80;78.70
5792;DHT22;2922;53.482;10.006;2023-08-24T13:44:19;29.70;80.00
5792;DHT22;2922;53.482;10.006;2023-08-24T13:46:45;29.70;91.60
5792;DHT22;2922;53.482;10.006;2023-08-24T13:49:10;29.70;91.50
5792;DHT22;2922;53.482;10.006;2023-08-24T13:51:37;29.70;89.40
5792;DHT22;2922;53.482;10.006;2023-08-24T13:54:02;29.60;89.00
5792;DHT22;2922;53.482;10.006;2023-08-24T13:56:28;29.60;88.20
5792;DHT22;2922;53.482;10.006;2023-08-24T13:58:53;29.50;84.60
5792;DHT22;2922;53.482;10.006;2023-08-24T14:01:19;29.50;86.20
5792;DHT22;2922;53.482;10.006;2023-08-24T14:03:44;29.40;88.70
5792;DHT22;2922;53.482;10.006;2023-08-24T14:06:10;29.50;91.20
5792;DHT22;2922;53.482;10.006;2023-08-24T14:08:36;29.40;93.50
5792;DHT22;2922;53.482;10.006;2023-08-24T14:11:02;29.30;95.40
5792;DHT22;2922;53.482;10.006;2023-08-24T14:13:28;29.20;94.60
5792;DHT22;2922;53.482;10.006;2023-08-24T14:15:55;29.20;96.00
5792;DHT22;2922;53.482;10.006;2023-08-24T14:18:21;29.20;99.90
5792;DHT22;2922;53.482;10.006;2023-08-24T14:20:47;29.10;97.00
5792;DHT22;2922;53.482;10.006;2023-08-24T14:23:13;29.00;99.90
5792;DHT22;2922;53.482;10.006;2023-08-24T14:25:38;29.00;99.90
5792;DHT22;2922;53.482;10.006;2023-08-24T14:28:04;29.10;99.90
5792;DHT22;2922;53.482;10.006;2023-08-24T14:30:29;29.10;99.90
5792;DHT22;2922;53.482;10.006;2023-08-24T14:32:55;29.00;99.90
5792;DHT22;2922;53.482;10.006;2023-08-24T14:35:21;28.90;99.90
5792;DHT22;2922;53.482;10.006;2023-08-24T14:37:46;28.70;99.90
5792;DHT22;2922;53.482;10.006;2023-08-24T14:40:12;28.70;99.90
5792;DHT22;2922;53.482;10.006;2023-08-24T14:42:37;28.70;99.90
5792;DHT22;2922;53.482;10.006;2023-08-24T14:45:03;28.80;99.90
5792;DHT22;2922;53.482;10.006;2023-08-24T14:47:29;28.80;99.90
5792;DHT22;2922;53.482;10.006;2023-08-24T14:49:54;28.70;99.90
5792;DHT22;2922;53.482;10.006;2023-08-24T14:52:20;28.60;99.90
5792;DHT22;2922;53.482;10.006;2023-08-24T14:54:45;28.60;99.90
5792;DHT22;2922;53.482;10.006;2023-08-24T14:57:11;28.60;99.90
5792;DHT22;2922;53.482;10.006;2023-08-24T14:59:36;28.60;99.90
5792;DHT22;2922;53.482;10.006;2023-08-24T15:02:02;28.50;99.90
5792;DHT22;2922;53.482;10.006;2023-08-24T15:04:28;28.50;99.90
5792;DHT22;2922;53.482;10.006;2023-08-24T15:06:54;28.50;99.90
5792;DHT22;2922;53.482;10.006;2023-08-24T15:09:19;28.40;99.90
5792;DHT22;2922;53.482;10.006;2023-08-24T15:40:14;27.90;99.90
5792;DHT22;2922;53.482;10.006;2023-08-24T15:42:39;27.90;99.90
5792;DHT22;2922;53.482;10.006;2023-08-24T15:45:05;27.80;99.90
5792;DHT22;2922;53.482;10.006;2023-08-24T15:47:31;27.70;99.90
5792;DHT22;2922;53.482;10.006;2023-08-24T15:49:56;27.70;99.90
5792;DHT22;2922;53.482;10.006;2023-08-24T15:52:22;27.70;99.90
5792;DHT22;2922;53.482;10.006;2023-08-24T15:54:47;27.70;99.90
5792;DHT22;2922;53.482;10.006;2023-08-24T15:57:13;27.70;99.90
5792;DHT22;2922;53.482;10.006;2023-08-24T15:59:39;27.60;99.90
5792;DHT22;2922;53.482;10.006;2023-08-24T16:02:05;27.60;99.90
5792;DHT22;2922;53.482;10.006;2023-08-24T16:04:31;27.60;99.90
5792;DHT22;2922;53.482;10.006;2023-08-24T16:06:56;27.50;99.90
5792;DHT22;2922;53.482;10.006;2023-08-24T16:09:22;27.40;99.90
5792;DHT22;2922;53.482;10.006;2023-08-24T16:11:47;27.30;99.90
5792;DHT22;2922;53.482;10.006;2023-08-24T16:14:13;27.30;99.90
5792;DHT22;2922;53.482;10.006;2023-08-24T16:16:38;27.30;99.90
5792;DHT22;2922;53.482;10.006;2023-08-24T16:19:04;27.20;99.90
5792;DHT22;2922;53.482;10.006;2023-08-24T16:21:30;27.20;99.90
5792;DHT22;2922;53.482;10.006;2023-08-24T16:23:56;27.10;99.90
5792;DHT22;2922;53.482;10.006;2023-08-24T16:26:22;27.10;99.90
5792;DHT22;2922;53.482;10.006;2023-08-24T16:28:47;27.10;99.90
5792;DHT22;2922;53.482;10.006;2023-08-24T16:31:15;27.10;99.90
5792;DHT22;2922;53.482;10.006;2023-08-24T16:33:40;27.10;99.90
5792;DHT22;2922;53.482;10.006;2023-08-24T16:36:09;27.10;99.90
5792;DHT22;2922;53.482;10.006;2023-08-24T16:38:35;27.00;99.90
5792;DHT22;2922;53.482;10.006;2023-08-24T16:41:00;27.00;99.90
5792;DHT22;2922;53.482;10.006;2023-08-24T16:43:26;26.90;99.90
5792;DHT22;2922;53.482;10.006;2023-08-24T16:45:52;26.90;99.90
5792;DHT22;2922;53.482;10.006;2023-08-24T16:48:17;26.80;99.90
5792;DHT22;2922;53.482;10.006;2023-08-24T16:50:43;26.80;99.90
5792;DHT22;2922;53.482;10.006;2023-08-24T16:53:09;26.70;99.90
5792;DHT22;2922;53.482;10.006;2023-08-24T16:55:34;26.70;99.90
5792;DHT22;2922;53.482;10.006;2023-08-24T16:58:00;26.70;99.90
5792;DHT22;2922;53.482;10.006;2023-08-24T17:00:26;26.60;99.90
5792;DHT22;2922;53.482;10.006;2023-08-24T17:02:52;26.60;99.90
5792;DHT22;2922;53.482;10.006;2023-08-24T17:05:17;26.50;99.90
5792;DHT22;2922;53.482;10.006;2023-08-24T17:08:01;26.50;99.90
5792;DHT22;2922;53.482;10.006;2023-08-24T17:10:27;26.40;99.90
5792;DHT22;2922;53.482;10.006;2023-08-24T17:12:53;26.40;99.90
5792;DHT22;2922;53.482;10.006;2023-08-24T17:15:19;26.30;99.90
5792;DHT22;2922;53.482;10.006;2023-08-24T17:17:44;26.20;99.90
5792;DHT22;2922;53.482;10.006;2023-08-24T17:20:10;26.20;99.90
5792;DHT22;2922;53.482;10.006;2023-08-24T17:22:35;26.20;99.90
5792;DHT22;2922;53.482;10.006;2023-08-24T17:25:01;26.10;99.90
5792;DHT22;2922;53.482;10.006;2023-08-24T17:27:28;26.10;99.90
5792;DHT22;2922;53.482;10.006;2023-08-24T17:29:54;26.10;99.90
5792;DHT22;2922;53.482;10.006;2023-08-24T17:32:19;26.00;99.90
5792;DHT22;2922;53.482;10.006;2023-08-24T17:34:51;26.00;99.90
5792;DHT22;2922;53.482;10.006;2023-08-24T17:37:16;26.00;99.90
5792;DHT22;2922;53.482;10.006;2023-08-24T17:39:42;25.90;99.90
5792;DHT22;2922;53.482;10.006;2023-08-24T17:42:07;25.90;99.90
5792;DHT22;2922;53.482;10.006;2023-08-24T17:44:33;25.80;99.90
5792;DHT22;2922;53.482;10.006;2023-08-24T17:46:59;25.80;99.90
5792;DHT22;2922;53.482;10.006;2023-08-24T17:49:25;25.70;99.90
5792;DHT22;2922;53.482;10.006;2023-08-24T17:51:51;25.70;99.90
5792;DHT22;2922;53.482;10.006;2023-08-24T17:54:16;25.60;99.90
5792;DHT22;2922;53.482;10.006;2023-08-24T17:56:42;25.50;99.90
5792;DHT22;2922;53.482;10.006;2023-08-24T17:59:07;25.50;99.90
5792;DHT22;2922;53.482;10.006;2023-08-24T18:01:33;25.40;99.90
5792;DHT22;2922;53.482;10.006;2023-08-24T18:03:58;25.40;99.90
5792;DHT22;2922;53.482;10.006;2023-08-24T18:06:24;25.30;99.90
5792;DHT22;2922;53.482;10.006;2023-08-24T18:08:50;25.30;99.90
5792;DHT22;2922;53.482;10.006;2023-08-24T18:11:15;25.20;99.90
5792;DHT22;2922;53.482;10.006;2023-08-24T18:13:41;25.20;99.90
5792;DHT22;2922;53.482;10.006;2023-08-24T18:16:06;25.10;99.90
5792;DHT22;2922;53.482;10.006;2023-08-24T18:18:32;25.10;99.90
5792;DHT22;2922;53.482;10.006;2023-08-24T18:21:02;25.10;99.90
5792;DHT22;2922;53.482;10.006;2023-08-24T18:23:28;25.10;99.90
5792;DHT22;2922;53.482;10.006;2023-08-24T18:25:54;25.00;99.90
5792;DHT22;2922;53.482;10.006;2023-08-24T18:28:19;24.90;99.90
5792;DHT22;2922;53.482;10.006;2023-08-24T18:30:45;24.90;99.90
5792;DHT22;2922;53.482;10.006;2023-08-24T18:33:10;24.90;99.90
5792;DHT22;2922;53.482;10.006;2023-08-24T18:35:36;24.80;99.90
5792;DHT22;2922;53.482;10.006;2023-08-24T18:38:02;24.80;99.90
5792;DHT22;2922;53.482;10.006;2023-08-24T18:40:29;24.70;99.90
5792;DHT22;2922;53.482;10.006;2023-08-24T18:42:54;24.70;99.90
5792;DHT22;2922;53.482;10.006;2023-08-24T18:45:20;24.70;99.90
5792;DHT22;2922;53.482;10.006;2023-08-24T18:47:46;24.70;99.90
5792;DHT22;2922;53.482;10.006;2023-08-24T18:50:12;24.60;99.90
5792;DHT22;2922;53.482;10.006;2023-08-24T18:52:37;24.60;99.90
5792;DHT22;2922;53.482;10.006;2023-08-24T18:55:04;24.50;99.90
5792;DHT22;2922;53.482;10.006;2023-08-24T18:57:29;24.50;99.90
5792;DHT22;2922;53.482;10.006;2023-08-24T18:59:55;24.50;99.90
5792;DHT22;2922;53.482;10.006;2023-08-24T19:02:20;24.50;99.90
5792;DHT22;2922;53.482;10.006;2023-08-24T19:04:46;24.50;99.90
5792;DHT22;2922;53.482;10.006;2023-08-24T19:07:12;24.50;99.90
5792;DHT22;2922;53.482;10.006;2023-08-24T19:09:38;24.50;99.90
5792;DHT22;2922;53.482;10.006;2023-08-24T19:12:05;24.50;99.90
5792;DHT22;2922;53.482;10.006;2023-08-24T19:14:30;24.40;99.90
5792;DHT22;2922;53.482;10.006;2023-08-24T19:17:00;24.40;99.90
5792;DHT22;2922;53.482;10.006;2023-08-24T19:19:26;24.30;99.90
5792;DHT22;2922;53.482;10.006;2023-08-24T19:21:52;24.20;99.90
5792;DHT22;2922;53.482;10.006;2023-08-24T19:24:17;24.20;99.90
5792;DHT22;2922;53.482;10.006;2023-08-24T19:26:43;24.20;99.90
5792;DHT22;2922;53.482;10.006;2023-08-24T19:29:08;24.20;99.90
5792;DHT22;2922;53.482;10.006;2023-08-24T19:31:34;24.10;99.90
5792;DHT22;2922;53.482;10.006;2023-08-24T19:34:00;24.10;99.90
5792;DHT22;2922;53.482;10.006;2023-08-24T19:36:25;24.00;99.90
5792;DHT22;2922;53.482;10.006;2023-08-24T19:38:51;23.90;99.90
5792;DHT22;2922;53.482;10.006;2023-08-24T19:41:17;23.80;99.90
5792;DHT22;2922;53.482;10.006;2023-08-24T19:43:42;23.70;99.90
5792;DHT22;2922;53.482;10.006;2023-08-24T19:46:08;23.70;99.90
5792;DHT22;2922;53.482;10.006;2023-08-24T19:48:33;23.70;99.90
5792;DHT22;2922;53.482;10.006;2023-08-24T19:50:59;23.70;99.90
5792;DHT22;2922;53.482;10.006;2023-08-24T19:53:24;23.50;99.90
5792;DHT22;2922;53.482;10.006;2023-08-24T19:55:50;23.50;99.90
5792;DHT22;2922;53.482;10.006;2023-08-24T19:58:16;23.50;99.90
5792;DHT22;2922;53.482;10.006;2023-08-24T20:00:41;23.50;99.90
5792;DHT22;2922;53.482;10.006;2023-08-24T20:03:07;23.50;99.90
5792;DHT22;2922;53.482;10.006;2023-08-24T20:05:34;23.50;99.90
5792;DHT22;2922;53.482;10.006;2023-08-24T20:08:00;23.40;99.90
5792;DHT22;2922;53.482;10.006;2023-08-24T20:10:25;23.40;99.90
5792;DHT22;2922;53.482;10.006;2023-08-24T20:12:51;23.40;99.90
5792;DHT22;2922;53.482;10.006;2023-08-24T20:15:17;23.30;99.90
5792;DHT22;2922;53.482;10.006;2023-08-24T20:17:48;23.30;99.90
5792;DHT22;2922;53.482;10.006;2023-08-24T20:20:14;23.40;99.90
5792;DHT22;2922;53.482;10.006;2023-08-24T20:22:43;23.30;99.90
5792;DHT22;2922;53.482;10.006;2023-08-24T20:25:09;23.20;99.90
5792;DHT22;2922;53.482;10.006;2023-08-24T20:27:35;23.20;99.90
5792;DHT22;2922;53.482;10.006;2023-08-24T20:30:02;23.10;99.90
5792;DHT22;2922;53.482;10.006;2023-08-24T20:32:28;23.10;99.90
5792;DHT22;2922;53.482;10.006;2023-08-24T20:34:54;23.00;99.90
5792;DHT22;2922;53.482;10.006;2023-08-24T20:37:20;23.00;99.90
5792;DHT22;2922;53.482;10.006;2023-08-24T20:39:45;22.90;99.90
5792;DHT22;2922;53.482;10.006;2023-08-24T20:42:15;22.90;99.90
5792;DHT22;2922;53.482;10.006;2023-08-24T20:44:42;22.90;99.90
5792;DHT22;2922;53.482;10.006;2023-08-24T20:47:08;22.90;99.90
5792;DHT22;2922;53.482;10.006;2023-08-24T20:49:34;22.90;99.90
5792;DHT22;2922;53.482;10.006;2023-08-24T20:52:00;22.80;99.90
5792;DHT22;2922;53.482;10.006;2023-08-24T20:54:26;22.80;99.90
5792;DHT22;2922;53.482;10.006;2023-08-24T20:56:53;22.80;99.90
5792;DHT22;2922;53.482;10.006;2023-08-24T20:59:19;22.80;99.90
5792;DHT22;2922;53.482;10.006;2023-08-24T21:01:44;22.80;99.90
5792;DHT22;2922;53.482;10.006;2023-08-24T21:04:10;22.80;99.90
5792;DHT22;2922;53.482;10.006;2023-08-24T21:06:36;22.80;99.90
5792;DHT22;2922;53.482;10.006;2023-08-24T21:09:01;22.80;99.90
5792;DHT22;2922;53.482;10.006;2023-08-24T21:11:27;22.70;99.90
5792;DHT22;2922;53.482;10.006;2023-08-24T21:13:52;22.70;99.90
5792;DHT22;2922;53.482;10.006;2023-08-24T21:16:18;22.70;99.90
5792;DHT22;2922;53.482;10.006;2023-08-24T21:18:43;22.70;99.90
5792;DHT22;2922;53.482;10.006;2023-08-24T21:21:09;22.70;99.90
5792;DHT22;2922;53.482;10.006;2023-08-24T21:23:35;22.70;99.90
5792;DHT22;2922;53.482;10.006;2023-08-24T21:26:00;22.60;99.90
5792;DHT22;2922;53.482;10.006;2023-08-24T21:28:26;22.60;99.90
5792;DHT22;2922;53.482;10.006;2023-08-24T21:30:51;22.60;99.90
5792;DHT22;2922;53.482;10.006;2023-08-24T21:33:17;22.50;99.90
5792;DHT22;2922;53.482;10.006;2023-08-24T21:35:44;22.50;99.90
5792;DHT22;2922;53.482;10.006;2023-08-24T21:38:10;22.40;99.90
5792;DHT22;2922;53.482;10.006;2023-08-24T21:40:39;22.40;99.90
5792;DHT22;2922;53.482;10.006;2023-08-24T21:43:06;22.30;99.90
5792;DHT22;2922;53.482;10.006;2023-08-24T21:45:31;22.30;99.90
5792;DHT22;2922;53.482;10.006;2023-08-24T21:47:57;22.30;99.90
5792;DHT22;2922;53.482;10.006;2023-08-24T21:50:23;22.20;99.90
5792;DHT22;2922;53.482;10.006;2023-08-24T21:52:50;22.20;99.90
5792;DHT22;2922;53.482;10.006;2023-08-24T21:55:16;22.20;99.90
5792;DHT22;2922;53.482;10.006;2023-08-24T21:57:41;22.10;99.90
5792;DHT22;2922;53.482;10.006;2023-08-24T22:00:08;22.00;99.90
5792;DHT22;2922;53.482;10.006;2023-08-24T22:02:37;22.00;99.90
5792;DHT22;2922;53.482;10.006;2023-08-24T22:05:03;21.90;99.90
5792;DHT22;2922;53.482;10.006;2023-08-24T22:07:28;21.90;99.90
5792;DHT22;2922;53.482;10.006;2023-08-24T22:09:54;21.80;99.90
5792;DHT22;2922;53.482;10.006;2023-08-24T22:12:20;21.80;99.90
5792;DHT22;2922;53.482;10.006;2023-08-24T22:14:45;21.70;99.90
5792;DHT22;2922;53.482;10.006;2023-08-24T22:17:11;21.70;99.90
5792;DHT22;2922;53.482;10.006;2023-08-24T22:19:36;21.70;99.90
5792;DHT22;2922;53.482;10.006;2023-08-24T22:22:03;21.60;99.90
5792;DHT22;2922;53.482;10.006;2023-08-24T22:24:28;21.60;99.90
5792;DHT22;2922;53.482;10.006;2023-08-24T22:26:54;21.60;99.90
5792;DHT22;2922;53.482;10.006;2023-08-24T22:29:19;21.60;99.90
5792;DHT22;2922;53.482;10.006;2023-08-24T22:31:45;21.60;99.90
5792;DHT22;2922;53.482;10.006;2023-08-24T22:34:11;21.50;99.90
5792;DHT22;2922;53.482;10.006;2023-08-24T22:36:36;21.40;99.90
5792;DHT22;2922;53.482;10.006;2023-08-24T22:39:02;21.40;99.90
5792;DHT22;2922;53.482;10.006;2023-08-24T22:41:28;21.30;99.90
5792;DHT22;2922;53.482;10.006;2023-08-24T22:43:54;21.30;99.90
5792;DHT22;2922;53.482;10.006;2023-08-24T22:46:19;21.20;99.90
5792;DHT22;2922;53.482;10.006;2023-08-24T22:48:45;21.20;99.90
5792;DHT22;2922;53.482;10.006;2023-08-24T22:51:10;21.20;99.90
5792;DHT22;2922;53.482;10.006;2023-08-24T22:53:36;21.20;99.90
5792;DHT22;2922;53.482;10.006;2023-08-24T22:56:02;21.20;99.90
5792;DHT22;2922;53.482;10.006;2023-08-24T22:58:28;21.20;99.90
5792;DHT22;2922;53.482;10.006;2023-08-24T23:00:53;21.20;99.90
5792;DHT22;2922;53.482;10.006;2023-08-24T23:03:19;21.10;99.90
5792;DHT22;2922;53.482;10.006;2023-08-24T23:05:45;21.10;99.90
5792;DHT22;2922;53.482;10.006;2023-08-24T23:08:10;21.00;99.90
5792;DHT22;2922;53.482;10.006;2023-08-24T23:10:36;21.00;99.90
5792;DHT22;2922;53.482;10.006;2023-08-24T23:13:01;21.00;99.90
5792;DHT22;2922;53.482;10.006;2023-08-24T23:15:27;21.00;99.90
5792;DHT22;2922;53.482;10.006;2023-08-24T23:17:53;21.00;99.90
5792;DHT22;2922;53.482;10.006;2023-08-24T23:20:18;20.90;99.90
5792;DHT22;2922;53.482;10.006;2023-08-24T23:22:44;20.90;99.90
5792;DHT22;2922;53.482;10.006;2023-08-24T23:25:09;20.90;99.90
5792;DHT22;2922;53.482;10.006;2023-08-24T23:27:35;20.80;99.90
5792;DHT22;2922;53.482;10.006;2023-08-24T23:30:01;20.90;99.90
5792;DHT22;2922;53.482;10.006;2023-08-24T23:32:27;20.80;99.90
5792;DHT22;2922;53.482;10.006;2023-08-24T23:34:55;20.70;99.90
5792;DHT22;2922;53.482;10.006;2023-08-24T23:37:21;20.70;99.90
5792;DHT22;2922;53.482;10.006;2023-08-24T23:39:47;20.70;99.90
5792;DHT22;2922;53.482;10.006;2023-08-24T23:42:13;20.60;99.90
5792;DHT22;2922;53.482;10.006;2023-08-24T23:44:39;20.60;99.90
5792;DHT22;2922;53.482;10.006;2023-08-24T23:47:04;20.60;99.90
5792;DHT22;2922;53.482;10.006;2023-08-24T23:49:30;20.50;99.90
5792;DHT22;2922;53.482;10.006;2023-08-24T23:51:56;20.50;99.90
5792;DHT22;2922;53.482;10.006;2023-08-24T23:54:21;20.50;99.90
5792;DHT22;2922;53.482;10.006;2023-08-24T23:56:48;20.50;99.90
5792;DHT22;2922;53.482;10.006;2023-08-24T23:59:14;20.50;99.90
